Time;durP1;ratioP1;P1;durP2;ratioP2;P2;SDS_P1;SDS_P2;PMS_P1;PMS_P2;Temp;Humidity;BMP_temperature;BMP_pressure;BME280_temperature;BME280_humidity;BME280_pressure;Samples;Min_cycle;Max_cycle;Signal;HPM_P1;HPM_P2
2024/04/17 00:00:43;;;;;;;3.13;1.77;;;;;;;;;;5358284;26;20016;-73
2024/04/17 00:03:09;;;;;;;3.97;1.90;;;;;;;;;;5363958;26;20135;-73
2024/04/17 00:05:35;;;;;;;2.95;1.55;;;;;;;;;;5361471;26;19996;-72
2024/04/17 00:08:00;;;;;;;5.00;2.10;;;;;;;;;;5362152;26;20382;-73
2024/04/17 00:10:26;;;;;;;3.67;1.80;;;;;;;;;;5347815;26;20042;-72
2024/04/17 00:12:52;;;;;;;4.95;2.22;;;;;;;;;;5361426;26;19997;-72
2024/04/17 00:15:18;;;;;;;3.47;1.90;;;;;;;;;;5363448;26;20054;-72
2024/04/17 00:17:44;;;;;;;3.92;2.20;;;;;;;;;;5361004;26;20073;-72
2024/04/17 00:20:10;;;;;;;3.05;1.55;;;;;;;;;;5349327;26;20094;-73
2024/04/17 00:22:36;;;;;;;5.15;2.47;;;;;;;;;;5358783;26;20899;-72
2024/04/17 00:25:02;;;;;;;3.63;1.83;;;;;;;;;;5362779;26;20000;-72
2024/04/17 00:27:28;;;;;;;5.28;2.10;;;;;;;;;;5353208;26;20424;-72
2024/04/17 00:29:54;;;;;;;3.97;2.22;;;;;;;;;;5353452;26;20475;-72
2024/04/17 00:32:20;;;;;;;3.83;1.92;;;;;;;;;;5366555;26;20487;-72
2024/04/17 00:34:45;;;;;;;2.92;1.98;;;;;;;;;;5362972;26;20023;-72
2024/04/17 00:37:11;;;;;;;2.92;1.75;;;;;;;;;;5360661;26;20019;-72
2024/04/17 00:39:37;;;;;;;3.42;2.00;;;;;;;;;;5356310;26;20016;-73
2024/04/17 00:42:03;;;;;;;3.92;1.85;;;;;;;;;;5363269;26;20003;-72
2024/04/17 00:44:29;;;;;;;3.95;2.08;;;;;;;;;;5347643;26;20286;-72
2024/04/17 00:46:55;;;;;;;5.63;2.45;;;;;;;;;;5368801;26;20034;-72
2024/04/17 00:49:21;;;;;;;5.05;2.50;;;;;;;;;;5354560;26;20308;-73
2024/04/17 00:51:48;;;;;;;3.85;2.08;;;;;;;;;;5361495;26;20015;-72
2024/04/17 00:54:14;;;;;;;3.42;2.00;;;;;;;;;;5364359;26;20032;-72
2024/04/17 00:56:41;;;;;;;4.00;2.47;;;;;;;;;;5362682;26;20010;-72
2024/04/17 00:59:08;;;;;;;2.95;1.98;;;;;;;;;;5357360;26;20074;-72
2024/04/17 01:01:34;;;;;;;3.75;2.25;;;;;;;;;;5354960;26;20338;-72
2024/04/17 01:04:00;;;;;;;3.30;2.00;;;;;;;;;;5343917;26;20001;-72
2024/04/17 01:06:27;;;;;;;3.88;2.05;;;;;;;;;;5367919;26;20023;-72
2024/04/17 01:08:52;;;;;;;4.10;2.10;;;;;;;;;;5356131;26;20012;-72
2024/04/17 01:11:18;;;;;;;3.85;2.50;;;;;;;;;;5353400;26;20005;-72
2024/04/17 01:13:44;;;;;;;3.63;1.92;;;;;;;;;;5355666;26;20400;-72
2024/04/17 01:16:10;;;;;;;4.18;2.20;;;;;;;;;;5352225;26;20170;-72
2024/04/17 01:18:37;;;;;;;3.55;2.30;;;;;;;;;;5344317;26;20013;-72
2024/04/17 01:21:03;;;;;;;5.57;2.28;;;;;;;;;;5359217;26;20008;-72
2024/04/17 01:23:29;;;;;;;5.07;2.58;;;;;;;;;;5369099;26;20084;-71
2024/04/17 01:25:55;;;;;;;3.25;1.90;;;;;;;;;;5356548;26;20008;-72
2024/04/17 01:28:21;;;;;;;5.38;2.58;;;;;;;;;;5363027;26;20035;-72
2024/04/17 01:30:47;;;;;;;5.35;2.22;;;;;;;;;;5366426;26;20000;-72
2024/04/17 01:33:13;;;;;;;3.92;2.33;;;;;;;;;;5355187;26;20312;-73
2024/04/17 01:35:39;;;;;;;3.53;2.05;;;;;;;;;;5365870;26;20027;-72
2024/04/17 01:38:05;;;;;;;3.97;1.95;;;;;;;;;;5362248;26;20402;-72
2024/04/17 01:40:31;;;;;;;3.80;1.90;;;;;;;;;;5355928;26;20015;-72
2024/04/17 01:42:57;;;;;;;3.17;2.20;;;;;;;;;;5363123;26;20020;-73
2024/04/17 01:45:22;;;;;;;2.70;1.73;;;;;;;;;;5365427;26;20004;-72
2024/04/17 01:47:48;;;;;;;3.65;1.75;;;;;;;;;;5358575;26;20026;-72
2024/04/17 01:50:25;;;;;;;5.57;2.55;;;;;;;;;;5356257;26;20013;-72
2024/04/17 01:52:51;;;;;;;3.55;1.73;;;;;;;;;;5358297;26;19997;-72
2024/04/17 01:55:17;;;;;;;4.43;2.08;;;;;;;;;;5360568;26;20015;-72
2024/04/17 01:57:42;;;;;;;5.53;2.47;;;;;;;;;;5350552;26;20012;-72
2024/04/17 02:00:09;;;;;;;4.32;2.35;;;;;;;;;;5354079;26;20016;-72
2024/04/17 02:02:35;;;;;;;5.47;2.67;;;;;;;;;;5357051;26;20321;-72
2024/04/17 02:05:00;;;;;;;3.72;2.10;;;;;;;;;;5363748;26;20020;-73
2024/04/17 02:07:26;;;;;;;5.28;2.50;;;;;;;;;;5363304;26;20000;-72
2024/04/17 02:09:53;;;;;;;3.58;2.00;;;;;;;;;;5361570;26;20001;-72
2024/04/17 02:12:19;;;;;;;3.42;2.10;;;;;;;;;;5361291;26;20028;-72
2024/04/17 02:14:45;;;;;;;3.90;2.08;;;;;;;;;;5348455;26;20040;-71
2024/04/17 02:17:11;;;;;;;4.63;2.25;;;;;;;;;;5347840;26;20417;-72
2024/04/17 02:19:37;;;;;;;3.63;2.05;;;;;;;;;;5347700;26;20102;-72
2024/04/17 02:22:03;;;;;;;4.00;2.25;;;;;;;;;;5350723;26;20086;-72
2024/04/17 02:24:29;;;;;;;4.60;2.10;;;;;;;;;;5361276;26;20413;-71
2024/04/17 02:26:55;;;;;;;5.13;2.45;;;;;;;;;;5357799;26;20157;-72
2024/04/17 02:29:21;;;;;;;4.97;2.70;;;;;;;;;;5363825;26;20089;-72
2024/04/17 02:31:47;;;;;;;5.03;2.55;;;;;;;;;;5359713;26;20077;-72
2024/04/17 02:34:14;;;;;;;4.47;2.30;;;;;;;;;;5361687;26;20522;-72
2024/04/17 02:36:40;;;;;;;4.72;2.33;;;;;;;;;;5366482;26;20008;-72
2024/04/17 02:39:06;;;;;;;5.20;2.40;;;;;;;;;;5363860;26;20030;-72
2024/04/17 02:41:31;;;;;;;5.93;3.53;;;;;;;;;;5362332;26;20318;-72
2024/04/17 02:43:57;;;;;;;5.55;2.63;;;;;;;;;;5367713;26;20130;-72
2024/04/17 02:46:23;;;;;;;5.70;2.63;;;;;;;;;;5364223;26;19997;-72
2024/04/17 02:48:49;;;;;;;5.03;2.75;;;;;;;;;;5355383;26;20082;-72
2024/04/17 02:51:15;;;;;;;4.68;2.55;;;;;;;;;;5365199;26;20008;-72
2024/04/17 02:53:41;;;;;;;5.05;2.20;;;;;;;;;;5357008;26;20024;-73
2024/04/17 02:56:07;;;;;;;4.65;2.50;;;;;;;;;;5364968;26;20400;-72
2024/04/17 02:58:33;;;;;;;4.53;2.60;;;;;;;;;;5363185;26;20000;-72
2024/04/17 03:01:09;;;;;;;4.68;2.58;;;;;;;;;;5365632;26;20005;-72
2024/04/17 03:03:35;;;;;;;3.45;1.98;;;;;;;;;;5355650;26;20086;-72
2024/04/17 03:06:00;;;;;;;3.85;2.63;;;;;;;;;;5361201;26;20007;-72
2024/04/17 03:08:26;;;;;;;5.30;2.85;;;;;;;;;;5361838;26;20070;-72
2024/04/17 03:10:58;;;;;;;4.47;2.78;;;;;;;;;;5364617;26;20000;-72
2024/04/17 03:13:24;;;;;;;4.10;2.40;;;;;;;;;;5359195;26;20466;-71
2024/04/17 03:15:50;;;;;;;5.35;2.70;;;;;;;;;;5360896;26;20132;-72
2024/04/17 03:18:15;;;;;;;4.38;2.80;;;;;;;;;;5363178;26;20031;-72
2024/04/17 03:20:41;;;;;;;4.95;2.38;;;;;;;;;;5371064;26;20004;-72
2024/04/17 03:23:07;;;;;;;5.32;2.45;;;;;;;;;;5355944;26;19997;-71
2024/04/17 03:25:33;;;;;;;4.45;2.47;;;;;;;;;;5352539;26;20028;-72
2024/04/17 03:27:59;;;;;;;5.40;2.70;;;;;;;;;;5364123;26;20455;-71
2024/04/17 03:30:25;;;;;;;5.80;3.00;;;;;;;;;;5369287;26;20026;-72
2024/04/17 03:32:51;;;;;;;4.85;2.35;;;;;;;;;;5362139;26;19996;-72
2024/04/17 03:35:18;;;;;;;4.85;2.78;;;;;;;;;;5366762;26;20077;-73
2024/04/17 03:37:44;;;;;;;5.95;2.72;;;;;;;;;;5361800;26;20118;-71
2024/04/17 03:40:10;;;;;;;5.68;2.92;;;;;;;;;;5346399;26;20202;-71
2024/04/17 03:42:36;;;;;;;5.72;2.60;;;;;;;;;;5361534;26;20038;-72
2024/04/17 03:45:02;;;;;;;5.65;2.70;;;;;;;;;;5367455;26;20053;-71
2024/04/17 03:47:28;;;;;;;5.88;2.70;;;;;;;;;;5362258;26;20004;-71
2024/04/17 03:49:54;;;;;;;6.20;3.10;;;;;;;;;;5356750;26;20504;-71
2024/04/17 03:52:20;;;;;;;3.90;2.20;;;;;;;;;;5358122;26;20316;-72
2024/04/17 03:54:46;;;;;;;4.53;2.50;;;;;;;;;;5361271;26;20088;-72
2024/04/17 03:57:12;;;;;;;7.22;3.40;;;;;;;;;;5361826;26;20023;-71
2024/04/17 03:59:38;;;;;;;5.47;3.15;;;;;;;;;;5361943;26;20000;-72
2024/04/17 04:02:06;;;;;;;6.03;2.58;;;;;;;;;;5362302;26;20373;-72
2024/04/17 04:04:32;;;;;;;5.22;2.60;;;;;;;;;;5356999;26;20012;-72
2024/04/17 04:06:58;;;;;;;4.32;2.30;;;;;;;;;;5361337;26;20001;-71
2024/04/17 04:09:24;;;;;;;3.72;2.45;;;;;;;;;;5366963;26;20015;-72
2024/04/17 04:11:50;;;;;;;4.22;2.40;;;;;;;;;;5362447;26;20356;-71
2024/04/17 04:14:16;;;;;;;5.43;3.08;;;;;;;;;;5362387;26;20019;-71
2024/04/17 04:16:42;;;;;;;6.22;3.25;;;;;;;;;;5357812;26;20042;-71
2024/04/17 04:19:08;;;;;;;6.50;3.38;;;;;;;;;;5358989;26;19997;-71
2024/04/17 04:21:34;;;;;;;5.00;2.78;;;;;;;;;;5360086;26;20412;-71
2024/04/17 04:23:59;;;;;;;8.30;3.17;;;;;;;;;;5358111;26;20076;-71
2024/04/17 04:26:25;;;;;;;7.50;3.40;;;;;;;;;;5358890;26;20417;-71
2024/04/17 04:28:51;;;;;;;6.38;3.17;;;;;;;;;;5366640;26;20119;-70
2024/04/17 04:31:17;;;;;;;4.78;2.83;;;;;;;;;;5361776;26;20139;-69
2024/04/17 04:33:43;;;;;;;4.68;2.65;;;;;;;;;;5369538;26;20092;-69
2024/04/17 04:36:09;;;;;;;5.55;2.92;;;;;;;;;;5368482;26;19996;-69
2024/04/17 04:38:35;;;;;;;6.43;3.50;;;;;;;;;;5363152;26;20004;-69
2024/04/17 04:41:02;;;;;;;4.93;3.03;;;;;;;;;;5357331;26;19993;-69
2024/04/17 04:43:28;;;;;;;6.78;3.40;;;;;;;;;;5352725;26;20336;-69
2024/04/17 04:45:55;;;;;;;6.15;3.28;;;;;;;;;;5364824;26;20000;-69
2024/04/17 04:48:21;;;;;;;8.13;3.55;;;;;;;;;;5360726;26;20104;-69
2024/04/17 04:50:47;;;;;;;7.10;3.13;;;;;;;;;;5366469;26;20099;-69
2024/04/17 04:53:13;;;;;;;7.32;3.47;;;;;;;;;;5364791;26;20000;-69
2024/04/17 04:55:39;;;;;;;6.93;3.95;;;;;;;;;;5357441;26;20087;-69
2024/04/17 04:58:05;;;;;;;8.73;3.17;;;;;;;;;;5361214;26;20021;-69
2024/04/17 05:00:30;;;;;;;6.43;3.40;;;;;;;;;;5360452;26;20475;-71
2024/04/17 05:02:56;;;;;;;7.05;3.50;;;;;;;;;;5355091;26;20089;-69
2024/04/17 05:05:22;;;;;;;6.40;3.53;;;;;;;;;;5366154;26;20028;-69
2024/04/17 05:07:48;;;;;;;5.50;3.10;;;;;;;;;;5364077;26;20004;-69
2024/04/17 05:10:14;;;;;;;5.25;2.97;;;;;;;;;;5368186;26;20007;-69
2024/04/17 05:12:40;;;;;;;8.40;3.67;;;;;;;;;;5353997;26;20011;-70
2024/04/17 05:15:06;;;;;;;6.70;3.20;;;;;;;;;;5366817;26;20130;-69
2024/04/17 05:17:32;;;;;;;5.97;2.92;;;;;;;;;;5361227;26;20019;-69
2024/04/17 05:19:58;;;;;;;5.80;3.22;;;;;;;;;;5369728;26;20004;-70
2024/04/17 05:22:24;;;;;;;6.80;3.60;;;;;;;;;;5362013;26;20011;-69
2024/04/17 05:24:50;;;;;;;6.78;3.03;;;;;;;;;;5360217;26;20412;-68
2024/04/17 05:27:16;;;;;;;6.97;3.05;;;;;;;;;;5347860;26;20070;-69
2024/04/17 05:29:41;;;;;;;6.43;3.45;;;;;;;;;;5352020;26;20075;-69
2024/04/17 05:32:07;;;;;;;5.28;2.92;;;;;;;;;;5366095;26;20000;-68
2024/04/17 05:34:33;;;;;;;5.40;3.17;;;;;;;;;;5366814;26;20076;-69
2024/04/17 05:36:59;;;;;;;6.53;2.97;;;;;;;;;;5363802;26;20018;-70
2024/04/17 05:39:26;;;;;;;7.18;3.25;;;;;;;;;;5365551;26;20402;-77
2024/04/17 05:41:52;;;;;;;5.13;2.72;;;;;;;;;;5364022;26;20004;-70
2024/04/17 05:44:18;;;;;;;6.90;3.53;;;;;;;;;;5360989;26;20419;-70
2024/04/17 05:46:43;;;;;;;4.82;2.70;;;;;;;;;;5361212;26;20024;-71
2024/04/17 05:49:09;;;;;;;4.18;2.88;;;;;;;;;;5365595;26;20140;-69
2024/04/17 05:51:35;;;;;;;6.20;3.22;;;;;;;;;;5358373;26;20055;-72
2024/04/17 05:54:01;;;;;;;5.28;2.80;;;;;;;;;;5350447;26;20082;-69
2024/04/17 05:56:27;;;;;;;7.50;3.22;;;;;;;;;;5361916;26;20000;-69
2024/04/17 05:58:53;;;;;;;8.02;3.30;;;;;;;;;;5358702;26;20412;-68
2024/04/17 06:01:19;;;;;;;5.32;2.78;;;;;;;;;;5367875;26;20407;-68
2024/04/17 06:03:45;;;;;;;6.03;3.22;;;;;;;;;;5364310;26;20011;-68
2024/04/17 06:06:10;;;;;;;6.15;3.17;;;;;;;;;;5363811;26;20051;-68
2024/04/17 06:08:36;;;;;;;4.97;2.65;;;;;;;;;;5365282;26;19996;-68
2024/04/17 06:11:02;;;;;;;5.25;2.80;;;;;;;;;;5362255;26;20421;-68
2024/04/17 06:13:28;;;;;;;6.60;3.33;;;;;;;;;;5355400;26;20014;-68
2024/04/17 06:15:54;;;;;;;5.80;3.13;;;;;;;;;;5354190;26;20031;-68
2024/04/17 06:18:20;;;;;;;4.80;2.80;;;;;;;;;;5370384;26;20033;-68
2024/04/17 06:20:46;;;;;;;4.70;2.60;;;;;;;;;;5372949;26;20028;-68
2024/04/17 06:23:12;;;;;;;5.05;2.92;;;;;;;;;;5368788;26;20000;-68
2024/04/17 06:25:41;;;;;;;4.53;2.55;;;;;;;;;;5370251;26;20431;-69
2024/04/17 06:28:07;;;;;;;6.30;3.28;;;;;;;;;;5361955;26;20004;-66
2024/04/17 06:30:33;;;;;;;5.25;3.13;;;;;;;;;;5366183;26;20016;-68
2024/04/17 06:32:59;;;;;;;5.82;3.13;;;;;;;;;;5373726;26;20070;-68
2024/04/17 06:35:25;;;;;;;8.75;3.00;;;;;;;;;;5368770;26;20038;-68
2024/04/17 06:37:51;;;;;;;7.88;2.70;;;;;;;;;;5369138;26;20399;-69
2024/04/17 06:40:17;;;;;;;4.20;2.22;;;;;;;;;;5355581;26;20015;-68
2024/04/17 06:42:42;;;;;;;5.60;2.63;;;;;;;;;;5367570;26;20040;-75
2024/04/17 06:45:08;;;;;;;5.00;2.45;;;;;;;;;;5367256;26;20664;-66
2024/04/17 06:47:34;;;;;;;5.30;2.70;;;;;;;;;;5373009;26;20412;-64
2024/04/17 06:50:00;;;;;;;9.00;2.83;;;;;;;;;;5365099;26;20113;-65
2024/04/17 06:52:26;;;;;;;5.40;3.03;;;;;;;;;;5364634;26;20142;-67
2024/04/17 06:54:52;;;;;;;4.95;2.80;;;;;;;;;;5365570;26;20056;-67
2024/04/17 06:57:18;;;;;;;3.45;2.03;;;;;;;;;;5370461;26;20001;-68
2024/04/17 06:59:44;;;;;;;5.95;2.75;;;;;;;;;;5358244;26;20015;-68
2024/04/17 07:02:10;;;;;;;4.93;2.50;;;;;;;;;;5365101;26;20012;-68
2024/04/17 07:04:36;;;;;;;5.07;2.78;;;;;;;;;;5370916;26;20015;-68
2024/04/17 07:07:02;;;;;;;5.32;2.53;;;;;;;;;;5367506;26;20323;-69
2024/04/17 07:09:28;;;;;;;5.68;2.20;;;;;;;;;;5367393;26;20348;-69
2024/04/17 07:11:54;;;;;;;5.65;2.80;;;;;;;;;;5365488;26;20000;-69
2024/04/17 07:14:20;;;;;;;3.00;2.08;;;;;;;;;;5364050;26;19997;-69
2024/04/17 07:16:46;;;;;;;5.72;2.95;;;;;;;;;;5357633;26;20063;-69
2024/04/17 07:19:12;;;;;;;4.05;2.50;;;;;;;;;;5366011;26;20000;-69
2024/04/17 07:21:37;;;;;;;3.75;2.35;;;;;;;;;;5359092;26;20081;-69
2024/04/17 07:24:04;;;;;;;4.90;2.80;;;;;;;;;;5361772;26;20139;-69
2024/04/17 07:26:29;;;;;;;3.28;1.88;;;;;;;;;;5366128;26;20100;-69
2024/04/17 07:28:55;;;;;;;3.92;2.00;;;;;;;;;;5365655;26;20011;-69
2024/04/17 07:31:21;;;;;;;3.83;2.05;;;;;;;;;;5324809;26;20013;-69
2024/04/17 07:33:47;;;;;;;4.60;1.85;;;;;;;;;;5366187;26;20000;-69
2024/04/17 07:36:13;;;;;;;3.08;1.92;;;;;;;;;;5365014;26;20090;-69
2024/04/17 07:38:39;;;;;;;2.65;1.90;;;;;;;;;;5365631;26;20077;-69
2024/04/17 07:41:05;;;;;;;2.92;1.90;;;;;;;;;;5352784;26;20367;-69
2024/04/17 07:43:32;;;;;;;3.60;2.28;;;;;;;;;;5368905;26;20086;-68
2024/04/17 07:45:58;;;;;;;3.10;1.83;;;;;;;;;;5361859;26;20012;-68
2024/04/17 07:48:24;;;;;;;2.80;1.65;;;;;;;;;;5363697;26;20456;-68
2024/04/17 07:50:50;;;;;;;3.60;1.88;;;;;;;;;;5353078;26;19996;-69
2024/04/17 07:53:16;;;;;;;4.32;1.95;;;;;;;;;;5365802;26;20044;-68
2024/04/17 07:55:42;;;;;;;3.33;1.60;;;;;;;;;;5363145;26;20043;-69
2024/04/17 07:58:08;;;;;;;2.80;1.40;;;;;;;;;;5350582;26;20077;-68
2024/04/17 08:00:35;;;;;;;3.30;1.58;;;;;;;;;;5356937;26;20422;-69
2024/04/17 08:03:01;;;;;;;2.92;1.48;;;;;;;;;;5360816;26;20292;-69
2024/04/17 08:05:27;;;;;;;2.40;1.45;;;;;;;;;;5358108;26;19996;-69
2024/04/17 08:07:54;;;;;;;3.40;1.58;;;;;;;;;;5369514;26;20011;-69
2024/04/17 08:10:20;;;;;;;2.00;1.10;;;;;;;;;;5360696;26;20008;-69
2024/04/17 08:12:47;;;;;;;1.90;1.05;;;;;;;;;;5348631;26;20317;-69
2024/04/17 08:15:13;;;;;;;1.83;1.25;;;;;;;;;;5350655;26;20036;-69
2024/04/17 08:17:42;;;;;;;1.25;0.88;;;;;;;;;;5366804;26;20006;-69
2024/04/17 08:20:08;;;;;;;2.47;1.08;;;;;;;;;;5359649;26;20052;-69
2024/04/17 08:22:35;;;;;;;1.60;1.00;;;;;;;;;;5360985;26;20001;-68
2024/04/17 08:25:01;;;;;;;2.42;1.13;;;;;;;;;;5354461;26;20005;-69
2024/04/17 08:27:27;;;;;;;1.38;0.80;;;;;;;;;;5355019;26;20000;-69
2024/04/17 08:29:53;;;;;;;1.90;0.85;;;;;;;;;;5358745;26;20080;-69
2024/04/17 08:32:18;;;;;;;0.88;0.73;;;;;;;;;;5326222;26;20015;-69
2024/04/17 08:34:44;;;;;;;1.52;0.98;;;;;;;;;;5365832;26;20000;-69
2024/04/17 08:37:10;;;;;;;1.33;1.00;;;;;;;;;;5350873;26;20000;-70
2024/04/17 08:39:36;;;;;;;1.73;1.05;;;;;;;;;;5357680;26;20031;-69
2024/04/17 08:42:06;;;;;;;2.03;0.93;;;;;;;;;;5351233;26;19997;-70
2024/04/17 08:44:35;;;;;;;0.93;0.73;;;;;;;;;;5345141;26;20000;-69
2024/04/17 08:47:05;;;;;;;2.03;0.90;;;;;;;;;;5350623;26;20300;-70
2024/04/17 08:49:32;;;;;;;1.17;0.80;;;;;;;;;;5356128;26;20103;-70
2024/04/17 08:51:59;;;;;;;1.15;0.80;;;;;;;;;;5363122;26;20018;-69
2024/04/17 08:54:25;;;;;;;1.63;0.90;;;;;;;;;;5358167;26;20005;-69
2024/04/17 08:56:51;;;;;;;2.25;0.70;;;;;;;;;;5355519;26;20015;-70
2024/04/17 08:59:17;;;;;;;1.23;0.47;;;;;;;;;;5360008;26;20363;-69
2024/04/17 09:01:43;;;;;;;1.08;0.70;;;;;;;;;;5355907;26;20088;-70
2024/04/17 09:04:10;;;;;;;1.05;0.80;;;;;;;;;;5362362;26;20323;-68
2024/04/17 09:06:37;;;;;;;1.27;0.47;;;;;;;;;;5357590;26;20001;-68
2024/04/17 09:09:03;;;;;;;1.90;0.60;;;;;;;;;;5357750;26;20046;-69
2024/04/17 09:11:32;;;;;;;1.77;0.52;;;;;;;;;;5358507;26;20281;-69
2024/04/17 09:13:58;;;;;;;2.58;0.88;;;;;;;;;;5357417;26;20008;-70
2024/04/17 09:16:24;;;;;;;1.25;0.50;;;;;;;;;;5352421;26;20011;-69
2024/04/17 09:18:50;;;;;;;0.95;0.75;;;;;;;;;;5349723;26;20124;-70
2024/04/17 09:21:16;;;;;;;0.38;0.38;;;;;;;;;;5362998;26;20011;-70
2024/04/17 09:23:42;;;;;;;0.40;0.30;;;;;;;;;;5368182;26;20000;-70
2024/04/17 09:26:15;;;;;;;0.95;0.50;;;;;;;;;;5367886;26;20011;-70
2024/04/17 09:28:40;;;;;;;0.90;0.50;;;;;;;;;;5365851;26;20082;-70
2024/04/17 09:31:06;;;;;;;0.40;0.40;;;;;;;;;;5365354;26;20151;-70
2024/04/17 09:33:32;;;;;;;1.27;0.70;;;;;;;;;;5368314;26;20577;-69
2024/04/17 09:36:02;;;;;;;1.63;0.60;;;;;;;;;;5370551;26;20103;-70
2024/04/17 09:38:28;;;;;;;0.88;0.43;;;;;;;;;;5371250;26;20039;-69
2024/04/17 09:40:56;;;;;;;0.45;0.32;;;;;;;;;;5358022;26;20000;-70
2024/04/17 09:43:24;;;;;;;2.60;0.60;;;;;;;;;;5359754;26;20442;-69
2024/04/17 09:45:54;;;;;;;1.05;0.60;;;;;;;;;;5367811;26;19996;-70
2024/04/17 09:48:20;;;;;;;1.13;0.60;;;;;;;;;;5366095;26;20082;-70
2024/04/17 09:50:46;;;;;;;0.40;0.40;;;;;;;;;;5348696;26;20019;-69
2024/04/17 09:53:12;;;;;;;0.73;0.55;;;;;;;;;;5360309;26;19996;-70
2024/04/17 09:55:38;;;;;;;0.57;0.40;;;;;;;;;;5361834;26;20012;-70
2024/04/17 09:58:05;;;;;;;0.98;0.40;;;;;;;;;;5360139;26;20039;-70
2024/04/17 10:00:31;;;;;;;0.47;0.40;;;;;;;;;;5364761;26;20115;-70
2024/04/17 10:02:59;;;;;;;1.92;0.55;;;;;;;;;;5362454;26;20309;-70
2024/04/17 10:05:26;;;;;;;0.95;0.60;;;;;;;;;;5364243;26;20005;-69
2024/04/17 10:07:53;;;;;;;2.00;0.55;;;;;;;;;;5372479;26;20015;-70
2024/04/17 10:10:19;;;;;;;1.02;0.50;;;;;;;;;;5350965;26;20421;-69
2024/04/17 10:12:47;;;;;;;1.00;0.60;;;;;;;;;;5364811;26;20017;-70
2024/04/17 10:15:13;;;;;;;1.10;0.60;;;;;;;;;;5365239;26;20004;-70
2024/04/17 10:17:39;;;;;;;1.60;0.50;;;;;;;;;;5364794;26;20043;-69
2024/04/17 10:20:06;;;;;;;1.58;0.47;;;;;;;;;;5365248;26;20000;-69
2024/04/17 10:22:33;;;;;;;0.57;0.40;;;;;;;;;;5361602;26;19996;-70
2024/04/17 10:25:06;;;;;;;0.68;0.28;;;;;;;;;;5368028;26;20000;-70
2024/04/17 10:27:36;;;;;;;0.60;0.40;;;;;;;;;;5356702;26;20056;-70
2024/04/17 10:30:06;;;;;;;2.05;0.40;;;;;;;;;;5367303;26;20057;-70
2024/04/17 10:32:32;;;;;;;0.52;0.30;;;;;;;;;;5366203;26;20465;-70
2024/04/17 10:34:59;;;;;;;1.15;0.40;;;;;;;;;;5360974;26;20027;-71
2024/04/17 10:37:26;;;;;;;0.68;0.50;;;;;;;;;;5365426;26;20431;-71
2024/04/17 10:39:52;;;;;;;2.05;0.60;;;;;;;;;;5353719;26;20327;-71
2024/04/17 10:42:18;;;;;;;1.55;0.60;;;;;;;;;;5358840;26;20075;-70
2024/04/17 10:44:45;;;;;;;1.30;0.50;;;;;;;;;;5359904;26;20000;-71
2024/04/17 10:47:19;;;;;;;0.88;0.25;;;;;;;;;;5364575;26;20123;-69
2024/04/17 10:49:53;;;;;;;1.88;0.50;;;;;;;;;;5357405;26;20309;-70
2024/04/17 10:52:20;;;;;;;3.28;0.63;;;;;;;;;;5365581;26;20008;-70
2024/04/17 10:54:46;;;;;;;0.40;0.20;;;;;;;;;;5363602;26;20443;-70
2024/04/17 10:57:12;;;;;;;0.35;0.35;;;;;;;;;;5364817;26;20059;-70
2024/04/17 10:59:44;;;;;;;0.65;0.25;;;;;;;;;;5365625;26;20505;-70
2024/04/17 11:02:09;;;;;;;0.82;0.50;;;;;;;;;;5354149;26;20436;-70
2024/04/17 11:04:35;;;;;;;1.48;0.60;;;;;;;;;;5364781;26;20000;-71
2024/04/17 11:07:02;;;;;;;2.50;0.60;;;;;;;;;;5354251;26;20043;-70
2024/04/17 11:09:27;;;;;;;0.43;0.28;;;;;;;;;;5366286;26;20008;-70
2024/04/17 11:11:53;;;;;;;1.40;0.70;;;;;;;;;;5364776;26;20275;-70
2024/04/17 11:14:19;;;;;;;0.50;0.38;;;;;;;;;;5367544;26;20024;-69
2024/04/17 11:16:45;;;;;;;0.77;0.22;;;;;;;;;;5357352;26;20357;-70
2024/04/17 11:19:11;;;;;;;0.85;0.40;;;;;;;;;;5361069;26;20019;-70
2024/04/17 11:21:37;;;;;;;0.20;0.20;;;;;;;;;;5364036;26;20088;-70
2024/04/17 11:24:03;;;;;;;1.15;0.50;;;;;;;;;;5366454;26;20010;-70
2024/04/17 11:26:32;;;;;;;1.10;0.40;;;;;;;;;;5361812;26;20000;-70
2024/04/17 11:29:00;;;;;;;0.47;0.35;;;;;;;;;;5370532;26;20116;-70
2024/04/17 11:31:25;;;;;;;0.40;0.20;;;;;;;;;;5368255;26;20147;-70
2024/04/17 11:33:51;;;;;;;1.80;0.38;;;;;;;;;;5361757;26;20131;-70
2024/04/17 11:36:17;;;;;;;2.83;0.70;;;;;;;;;;5370250;26;20096;-70
2024/04/17 11:38:46;;;;;;;1.92;0.50;;;;;;;;;;5369709;26;20008;-70
2024/04/17 11:41:16;;;;;;;1.05;0.30;;;;;;;;;;5359073;26;20021;-70
2024/04/17 11:43:42;;;;;;;0.45;0.30;;;;;;;;;;5363650;26;20108;-71
2024/04/17 11:46:13;;;;;;;0.40;0.40;;;;;;;;;;5365177;26;20000;-70
2024/04/17 11:48:39;;;;;;;1.55;0.40;;;;;;;;;;5354461;26;20011;-71
2024/04/17 11:51:05;;;;;;;1.90;0.50;;;;;;;;;;5358327;26;20091;-70
2024/04/17 11:53:31;;;;;;;1.27;0.68;;;;;;;;;;5364918;26;20011;-70
2024/04/17 11:55:57;;;;;;;0.77;0.40;;;;;;;;;;5361834;26;20027;-71
2024/04/17 11:58:23;;;;;;;1.58;0.50;;;;;;;;;;5367023;26;19996;-70
2024/04/17 12:00:49;;;;;;;0.52;0.40;;;;;;;;;;5361531;26;19992;-70
2024/04/17 12:03:15;;;;;;;0.75;0.40;;;;;;;;;;5359131;26;20017;-70
2024/04/17 12:05:41;;;;;;;0.98;0.45;;;;;;;;;;5363496;26;20041;-70
2024/04/17 12:08:08;;;;;;;0.30;0.30;;;;;;;;;;5352258;26;20005;-71
2024/04/17 12:10:34;;;;;;;0.38;0.30;;;;;;;;;;5354008;26;20112;-70
2024/04/17 12:12:59;;;;;;;0.40;0.40;;;;;;;;;;5353235;26;20285;-70
2024/04/17 12:15:25;;;;;;;0.47;0.40;;;;;;;;;;5358835;26;20598;-70
2024/04/17 12:17:51;;;;;;;1.95;0.45;;;;;;;;;;5352607;26;20000;-70
2024/04/17 12:20:17;;;;;;;1.10;0.40;;;;;;;;;;5359130;26;20294;-70
2024/04/17 12:22:44;;;;;;;0.75;0.47;;;;;;;;;;5354950;26;20004;-70
2024/04/17 12:27:54;;;;;;;2.20;0.47;;;;;;;;;;5351488;26;20464;-70
2024/04/17 12:30:20;;;;;;;0.63;0.20;;;;;;;;;;5348026;26;20092;-70
2024/04/17 12:32:46;;;;;;;3.13;0.50;;;;;;;;;;5349892;26;20112;-70
2024/04/17 12:35:13;;;;;;;0.93;0.47;;;;;;;;;;5358356;26;20080;-69
2024/04/17 12:37:39;;;;;;;0.85;0.40;;;;;;;;;;5352912;26;19997;-70
2024/04/17 12:40:05;;;;;;;0.95;0.40;;;;;;;;;;5353099;26;20020;-70
2024/04/17 12:42:31;;;;;;;2.33;0.70;;;;;;;;;;5354031;26;20323;-70
2024/04/17 12:44:57;;;;;;;1.50;0.55;;;;;;;;;;5351692;26;20121;-70
2024/04/17 12:47:23;;;;;;;3.00;0.55;;;;;;;;;;5349684;26;20000;-69
2024/04/17 12:49:49;;;;;;;0.45;0.22;;;;;;;;;;5352617;26;20005;-69
2024/04/17 12:52:15;;;;;;;1.05;0.43;;;;;;;;;;5355340;26;20005;-70
2024/04/17 12:54:41;;;;;;;2.15;0.60;;;;;;;;;;5357653;26;20015;-70
2024/04/17 12:57:07;;;;;;;0.40;0.20;;;;;;;;;;5351085;26;20020;-69
2024/04/17 12:59:33;;;;;;;1.45;0.60;;;;;;;;;;5361054;26;20001;-70
2024/04/17 13:01:59;;;;;;;1.33;0.75;;;;;;;;;;5361875;26;20009;-69
2024/04/17 13:04:25;;;;;;;0.85;0.55;;;;;;;;;;5353796;26;20078;-70
2024/04/17 13:06:52;;;;;;;1.90;0.40;;;;;;;;;;5357547;26;20035;-70
2024/04/17 13:09:18;;;;;;;0.75;0.40;;;;;;;;;;5352827;26;20073;-70
2024/04/17 13:11:44;;;;;;;0.47;0.35;;;;;;;;;;5352182;26;20009;-70
2024/04/17 13:14:10;;;;;;;1.20;0.50;;;;;;;;;;5343790;26;20418;-70
2024/04/17 13:16:36;;;;;;;0.82;0.35;;;;;;;;;;5351675;26;20000;-69
2024/04/17 13:19:02;;;;;;;0.93;0.40;;;;;;;;;;5362463;26;20297;-70
2024/04/17 13:21:28;;;;;;;0.32;0.30;;;;;;;;;;5362647;26;20428;-71
2024/04/17 13:23:53;;;;;;;1.90;0.57;;;;;;;;;;5358112;26;20008;-71
2024/04/17 13:26:19;;;;;;;1.45;0.47;;;;;;;;;;5363441;26;20597;-70
2024/04/17 13:28:46;;;;;;;0.90;0.50;;;;;;;;;;5358092;26;20111;-70
2024/04/17 13:31:12;;;;;;;0.93;0.32;;;;;;;;;;5358313;26;20008;-70
2024/04/17 13:33:38;;;;;;;1.02;0.38;;;;;;;;;;5352081;26;20304;-70
2024/04/17 13:36:08;;;;;;;0.43;0.40;;;;;;;;;;5362920;26;20000;-70
2024/04/17 13:38:33;;;;;;;0.95;0.45;;;;;;;;;;5351091;26;20568;-70
2024/04/17 13:41:01;;;;;;;1.05;0.30;;;;;;;;;;5358457;26;20082;-70
2024/04/17 13:43:27;;;;;;;0.93;0.60;;;;;;;;;;5363559;26;20000;-70
2024/04/17 13:45:53;;;;;;;1.13;0.52;;;;;;;;;;5365730;26;20000;-70
2024/04/17 13:48:19;;;;;;;0.43;0.38;;;;;;;;;;5352798;26;20010;-71
2024/04/17 13:50:45;;;;;;;0.70;0.40;;;;;;;;;;5366786;26;20393;-69
2024/04/17 13:53:11;;;;;;;1.52;0.63;;;;;;;;;;5363811;26;20011;-69
2024/04/17 13:55:37;;;;;;;1.00;0.50;;;;;;;;;;5365155;26;20054;-69
2024/04/17 13:58:03;;;;;;;0.75;0.30;;;;;;;;;;5362611;26;20534;-69
2024/04/17 14:00:29;;;;;;;1.00;0.30;;;;;;;;;;5363682;26;20009;-69
2024/04/17 14:02:56;;;;;;;1.27;0.60;;;;;;;;;;5363121;26;20040;-70
2024/04/17 14:05:25;;;;;;;0.70;0.50;;;;;;;;;;5362888;26;20080;-69
2024/04/17 14:07:51;;;;;;;0.35;0.30;;;;;;;;;;5362099;26;20011;-70
2024/04/17 14:10:17;;;;;;;0.50;0.40;;;;;;;;;;5355949;26;20425;-70
2024/04/17 14:12:43;;;;;;;1.90;0.57;;;;;;;;;;5369172;26;20016;-69
2024/04/17 14:15:08;;;;;;;0.77;0.47;;;;;;;;;;5369232;26;20020;-69
2024/04/17 14:17:34;;;;;;;1.35;0.60;;;;;;;;;;5369906;26;20286;-69
2024/04/17 14:20:00;;;;;;;0.95;0.47;;;;;;;;;;5365799;26;20000;-69
2024/04/17 14:22:26;;;;;;;1.33;0.68;;;;;;;;;;5373634;26;19997;-69
2024/04/17 14:24:53;;;;;;;1.92;0.50;;;;;;;;;;5356384;26;20081;-70
2024/04/17 14:27:19;;;;;;;0.70;0.57;;;;;;;;;;5368733;26;20059;-70
2024/04/17 14:29:44;;;;;;;1.30;0.80;;;;;;;;;;5368180;26;20012;-69
2024/04/17 14:32:11;;;;;;;0.82;0.50;;;;;;;;;;5369330;26;20023;-70
2024/04/17 14:34:36;;;;;;;2.50;0.70;;;;;;;;;;5369091;26;20405;-69
2024/04/17 14:37:02;;;;;;;1.67;0.40;;;;;;;;;;5365658;26;20045;-69
2024/04/17 14:39:28;;;;;;;1.65;0.80;;;;;;;;;;5357270;26;20058;-69